sensor_id;sensor_type;location;lat;lon;timestamp;pressure;altitude;pressure_sealevel;temperature;humidity
12468;BME280;57850;52.922;6.256;2023-09-30T00:02:18;102354.59;;;15.06;100.00
12468;BME280;57850;52.922;6.256;2023-09-30T00:04:45;102375.44;;;15.12;100.00
12468;BME280;57850;52.922;6.256;2023-09-30T00:07:11;102401.97;;;14.75;100.00
12468;BME280;57850;52.922;6.256;2023-09-30T00:09:38;102408.38;;;14.65;100.00
12468;BME280;57850;52.922;6.256;2023-09-30T00:12:07;102391.91;;;14.58;100.00
12468;BME280;57850;52.922;6.256;2023-09-30T00:14:34;102371.19;;;14.47;100.00
12468;BME280;57850;52.922;6.256;2023-09-30T00:17:01;102339.16;;;14.95;100.00
12468;BME280;57850;52.922;6.256;2023-09-30T00:19:28;102338.97;;;15.01;100.00
12468;BME280;57850;52.922;6.256;2023-09-30T00:21:55;102335.47;;;15.00;100.00
12468;BME280;57850;52.922;6.256;2023-09-30T00:24:21;102330.69;;;14.85;100.00
12468;BME280;57850;52.922;6.256;2023-09-30T00:26:48;102330.78;;;14.82;100.00
12468;BME280;57850;52.922;6.256;2023-09-30T00:29:17;102319.00;;;14.66;100.00
12468;BME280;57850;52.922;6.256;2023-09-30T00:31:44;102280.81;;;14.55;100.00
12468;BME280;57850;52.922;6.256;2023-09-30T00:34:10;102261.56;;;14.54;100.00
12468;BME280;57850;52.922;6.256;2023-09-30T00:36:37;102250.03;;;14.60;100.00
12468;BME280;57850;52.922;6.256;2023-09-30T00:39:03;102267.78;;;14.81;100.00
12468;BME280;57850;52.922;6.256;2023-09-30T00:41:31;102285.28;;;14.80;100.00
12468;BME280;57850;52.922;6.256;2023-09-30T00:43:57;102309.34;;;14.96;100.00
12468;BME280;57850;52.922;6.256;2023-09-30T00:46:28;102316.34;;;14.95;100.00
12468;BME280;57850;52.922;6.256;2023-09-30T00:48:57;102315.97;;;14.80;100.00
12468;BME280;57850;52.922;6.256;2023-09-30T00:51:24;102306.16;;;14.85;100.00
12468;BME280;57850;52.922;6.256;2023-09-30T00:53:52;102311.28;;;14.89;100.00
12468;BME280;57850;52.922;6.256;2023-09-30T00:56:19;102299.81;;;14.92;100.00
12468;BME280;57850;52.922;6.256;2023-09-30T00:58:48;102295.91;;;14.77;100.00
12468;BME280;57850;52.922;6.256;2023-09-30T01:01:17;102298.19;;;14.88;100.00
12468;BME280;57850;52.922;6.256;2023-09-30T01:03:46;102292.59;;;14.98;100.00
12468;BME280;57850;52.922;6.256;2023-09-30T01:06:14;102292.19;;;15.12;100.00
12468;BME280;57850;52.922;6.256;2023-09-30T01:08:41;102313.78;;;15.22;100.00
12468;BME280;57850;52.922;6.256;2023-09-30T01:11:08;102329.09;;;15.35;100.00
12468;BME280;57850;52.922;6.256;2023-09-30T01:13:36;102350.69;;;15.19;100.00
12468;BME280;57850;52.922;6.256;2023-09-30T01:16:03;102365.94;;;15.08;100.00
12468;BME280;57850;52.922;6.256;2023-09-30T01:18:30;102360.00;;;15.29;100.00
12468;BME280;57850;52.922;6.256;2023-09-30T01:20:59;102368.16;;;15.21;100.00
12468;BME280;57850;52.922;6.256;2023-09-30T01:23:30;102365.91;;;15.09;100.00
12468;BME280;57850;52.922;6.256;2023-09-30T01:25:56;102358.78;;;15.13;100.00
12468;BME280;57850;52.922;6.256;2023-09-30T01:28:24;102332.34;;;14.88;100.00
12468;BME280;57850;52.922;6.256;2023-09-30T01:30:52;102298.53;;;15.05;100.00
12468;BME280;57850;52.922;6.256;2023-09-30T01:33:18;102295.78;;;15.36;100.00
12468;BME280;57850;52.922;6.256;2023-09-30T01:35:45;102306.53;;;15.02;100.00
12468;BME280;57850;52.922;6.256;2023-09-30T01:38:11;102283.94;;;15.23;100.00
12468;BME280;57850;52.922;6.256;2023-09-30T01:40:39;102273.84;;;15.37;100.00
12468;BME280;57850;52.922;6.256;2023-09-30T01:43:07;102277.47;;;15.07;100.00
12468;BME280;57850;52.922;6.256;2023-09-30T01:45:34;102269.16;;;14.92;100.00
12468;BME280;57850;52.922;6.256;2023-09-30T01:48:01;102261.88;;;15.00;100.00
12468;BME280;57850;52.922;6.256;2023-09-30T01:50:27;102277.47;;;15.07;100.00
12468;BME280;57850;52.922;6.256;2023-09-30T01:52:54;102264.38;;;15.05;100.00
12468;BME280;57850;52.922;6.256;2023-09-30T01:55:21;102260.88;;;15.05;100.00
12468;BME280;57850;52.922;6.256;2023-09-30T01:57:49;102267.38;;;14.93;100.00
12468;BME280;57850;52.922;6.256;2023-09-30T02:00:15;102257.38;;;15.04;100.00
12468;BME280;57850;52.922;6.256;2023-09-30T02:02:42;102259.31;;;14.99;100.00
12468;BME280;57850;52.922;6.256;2023-09-30T02:05:09;102260.94;;;14.75;100.00
12468;BME280;57850;52.922;6.256;2023-09-30T02:07:36;102260.19;;;14.70;100.00
12468;BME280;57850;52.922;6.256;2023-09-30T02:10:04;102222.03;;;14.86;100.00
12468;BME280;57850;52.922;6.256;2023-09-30T02:12:30;102183.69;;;14.81;100.00
12468;BME280;57850;52.922;6.256;2023-09-30T02:14:58;102166.97;;;14.82;100.00
12468;BME280;57850;52.922;6.256;2023-09-30T02:17:25;102172.88;;;14.90;100.00
12468;BME280;57850;52.922;6.256;2023-09-30T02:19:52;102180.75;;;14.90;100.00
12468;BME280;57850;52.922;6.256;2023-09-30T02:22:20;102193.69;;;14.96;100.00
12468;BME280;57850;52.922;6.256;2023-09-30T02:24:46;102188.63;;;14.90;100.00
12468;BME280;57850;52.922;6.256;2023-09-30T02:27:14;102194.28;;;15.04;100.00
12468;BME280;57850;52.922;6.256;2023-09-30T02:29:40;102197.06;;;14.99;100.00
12468;BME280;57850;52.922;6.256;2023-09-30T02:32:08;102204.22;;;14.94;100.00
12468;BME280;57850;52.922;6.256;2023-09-30T02:34:35;102218.69;;;14.81;100.00
12468;BME280;57850;52.922;6.256;2023-09-30T02:37:03;102215.34;;;14.48;100.00
12468;BME280;57850;52.922;6.256;2023-09-30T02:39:29;102163.66;;;14.77;100.00
12468;BME280;57850;52.922;6.256;2023-09-30T02:41:56;102180.03;;;14.85;100.00
12468;BME280;57850;52.922;6.256;2023-09-30T02:44:23;102172.38;;;15.03;100.00
12468;BME280;57850;52.922;6.256;2023-09-30T02:46:49;102186.47;;;15.02;100.00
12468;BME280;57850;52.922;6.256;2023-09-30T02:49:17;102205.16;;;14.93;100.00
12468;BME280;57850;52.922;6.256;2023-09-30T02:51:44;102217.13;;;15.02;100.00
12468;BME280;57850;52.922;6.256;2023-09-30T02:54:11;102233.88;;;14.99;100.00
12468;BME280;57850;52.922;6.256;2023-09-30T02:56:40;102248.91;;;14.94;100.00
12468;BME280;57850;52.922;6.256;2023-09-30T02:59:07;102248.44;;;14.82;100.00
12468;BME280;57850;52.922;6.256;2023-09-30T03:01:33;102214.63;;;14.71;100.00
12468;BME280;57850;52.922;6.256;2023-09-30T03:04:00;102185.53;;;14.77;100.00
12468;BME280;57850;52.922;6.256;2023-09-30T03:06:28;102167.06;;;14.79;100.00
12468;BME280;57850;52.922;6.256;2023-09-30T03:08:55;102149.31;;;14.87;100.00
12468;BME280;57850;52.922;6.256;2023-09-30T03:11:21;102154.09;;;15.00;100.00
12468;BME280;57850;52.922;6.256;2023-09-30T03:13:48;102165.13;;;15.12;100.00
12468;BME280;57850;52.922;6.256;2023-09-30T03:16:16;102192.97;;;15.17;100.00
12468;BME280;57850;52.922;6.256;2023-09-30T03:18:42;102194.06;;;15.10;100.00
12468;BME280;57850;52.922;6.256;2023-09-30T03:21:13;102184.06;;;15.21;100.00
12468;BME280;57850;52.922;6.256;2023-09-30T03:23:42;102195.34;;;15.51;100.00
12468;BME280;57850;52.922;6.256;2023-09-30T03:26:09;102204.22;;;15.47;100.00
12468;BME280;57850;52.922;6.256;2023-09-30T03:28:36;102209.84;;;15.36;100.00
12468;BME280;57850;52.922;6.256;2023-09-30T03:31:03;102224.47;;;15.19;100.00
12468;BME280;57850;52.922;6.256;2023-09-30T03:33:31;102218.84;;;15.29;100.00
12468;BME280;57850;52.922;6.256;2023-09-30T03:35:57;102220.69;;;15.27;100.00
12468;BME280;57850;52.922;6.256;2023-09-30T03:38:25;102233.72;;;15.30;100.00
12468;BME280;57850;52.922;6.256;2023-09-30T03:40:53;102255.97;;;15.20;100.00
12468;BME280;57850;52.922;6.256;2023-09-30T03:43:20;102238.53;;;15.18;100.00
12468;BME280;57850;52.922;6.256;2023-09-30T03:45:48;102216.69;;;15.16;100.00
12468;BME280;57850;52.922;6.256;2023-09-30T03:48:15;102229.84;;;15.16;100.00
12468;BME280;57850;52.922;6.256;2023-09-30T03:50:44;102241.41;;;15.10;100.00
12468;BME280;57850;52.922;6.256;2023-09-30T03:53:10;102232.47;;;15.16;100.00
12468;BME280;57850;52.922;6.256;2023-09-30T03:55:37;102248.38;;;15.11;100.00
12468;BME280;57850;52.922;6.256;2023-09-30T03:58:05;102261.03;;;15.00;100.00
12468;BME280;57850;52.922;6.256;2023-09-30T04:00:32;102255.66;;;15.03;100.00
12468;BME280;57850;52.922;6.256;2023-09-30T04:02:58;102252.78;;;15.11;100.00
12468;BME280;57850;52.922;6.256;2023-09-30T04:05:25;102261.88;;;15.00;100.00
12468;BME280;57850;52.922;6.256;2023-09-30T04:07:55;102251.22;;;15.05;100.00
12468;BME280;57850;52.922;6.256;2023-09-30T04:10:22;102222.31;;;15.05;100.00
12468;BME280;57850;52.922;6.256;2023-09-30T04:12:49;102238.28;;;14.99;100.00
12468;BME280;57850;52.922;6.256;2023-09-30T04:15:17;102233.13;;;14.96;100.00
12468;BME280;57850;52.922;6.256;2023-09-30T04:17:44;102224.53;;;14.91;100.00
12468;BME280;57850;52.922;6.256;2023-09-30T04:20:11;102238.59;;;14.88;100.00
12468;BME280;57850;52.922;6.256;2023-09-30T04:22:42;102224.97;;;14.76;100.00
12468;BME280;57850;52.922;6.256;2023-09-30T04:25:11;102223.50;;;14.95;100.00
12468;BME280;57850;52.922;6.256;2023-09-30T04:27:38;102231.81;;;15.09;100.00
12468;BME280;57850;52.922;6.256;2023-09-30T04:30:06;102243.66;;;15.22;100.00
12468;BME280;57850;52.922;6.256;2023-09-30T04:32:35;102266.66;;;15.16;100.00
12468;BME280;57850;52.922;6.256;2023-09-30T04:35:02;102283.84;;;14.98;100.00
12468;BME280;57850;52.922;6.256;2023-09-30T04:37:29;102272.38;;;15.00;100.00
12468;BME280;57850;52.922;6.256;2023-09-30T04:39:56;102287.66;;;14.88;100.00
12468;BME280;57850;52.922;6.256;2023-09-30T04:42:23;102297.25;;;14.90;100.00
12468;BME280;57850;52.922;6.256;2023-09-30T04:44:50;102307.59;;;14.95;100.00
12468;BME280;57850;52.922;6.256;2023-09-30T04:47:17;102301.19;;;15.03;100.00
12468;BME280;57850;52.922;6.256;2023-09-30T04:49:45;102307.09;;;14.84;100.00
12468;BME280;57850;52.922;6.256;2023-09-30T04:52:12;102306.31;;;14.80;100.00
12468;BME280;57850;52.922;6.256;2023-09-30T04:54:39;102300.28;;;14.77;100.00
12468;BME280;57850;52.922;6.256;2023-09-30T04:57:05;102294.22;;;14.75;100.00
12468;BME280;57850;52.922;6.256;2023-09-30T04:59:32;102295.41;;;14.94;100.00
12468;BME280;57850;52.922;6.256;2023-09-30T05:01:59;102301.38;;;14.70;100.00
12468;BME280;57850;52.922;6.256;2023-09-30T05:04:26;102307.41;;;15.01;100.00
12468;BME280;57850;52.922;6.256;2023-09-30T05:06:54;102342.72;;;14.94;100.00
12468;BME280;57850;52.922;6.256;2023-09-30T05:09:20;102344.84;;;14.81;100.00
12468;BME280;57850;52.922;6.256;2023-09-30T05:11:47;102334.84;;;14.92;100.00
12468;BME280;57850;52.922;6.256;2023-09-30T05:14:13;102322.28;;;15.02;100.00
12468;BME280;57850;52.922;6.256;2023-09-30T05:16:41;102329.97;;;15.08;100.00
12468;BME280;57850;52.922;6.256;2023-09-30T05:19:08;102322.00;;;15.11;100.00
12468;BME280;57850;52.922;6.256;2023-09-30T05:21:35;102326.47;;;15.09;100.00
12468;BME280;57850;52.922;6.256;2023-09-30T05:24:04;102341.22;;;15.13;100.00
12468;BME280;57850;52.922;6.256;2023-09-30T05:26:31;102353.66;;;15.08;100.00
12468;BME280;57850;52.922;6.256;2023-09-30T05:28:58;102386.56;;;14.92;100.00
12468;BME280;57850;52.922;6.256;2023-09-30T05:31:25;102381.53;;;14.84;100.00
12468;BME280;57850;52.922;6.256;2023-09-30T05:33:52;102390.31;;;14.83;100.00
12468;BME280;57850;52.922;6.256;2023-09-30T05:36:20;102382.22;;;14.91;100.00
12468;BME280;57850;52.922;6.256;2023-09-30T05:38:47;102391.44;;;14.75;100.00
12468;BME280;57850;52.922;6.256;2023-09-30T05:41:15;102381.53;;;14.84;100.00
12468;BME280;57850;52.922;6.256;2023-09-30T05:43:42;102379.72;;;14.86;100.00
12468;BME280;57850;52.922;6.256;2023-09-30T05:46:09;102388.13;;;14.68;100.00
12468;BME280;57850;52.922;6.256;2023-09-30T05:48:36;102369.94;;;14.62;100.00
12468;BME280;57850;52.922;6.256;2023-09-30T05:51:04;102382.22;;;14.60;100.00
12468;BME280;57850;52.922;6.256;2023-09-30T05:53:31;102387.56;;;14.57;100.00
12468;BME280;57850;52.922;6.256;2023-09-30T05:55:58;102399.16;;;14.50;100.00
12468;BME280;57850;52.922;6.256;2023-09-30T05:58:26;102392.28;;;14.44;100.00
12468;BME280;57850;52.922;6.256;2023-09-30T06:00:53;102360.94;;;14.38;100.00
12468;BME280;57850;52.922;6.256;2023-09-30T06:03:19;102336.84;;;14.23;100.00
12468;BME280;57850;52.922;6.256;2023-09-30T06:05:47;102324.31;;;14.34;100.00
12468;BME280;57850;52.922;6.256;2023-09-30T06:08:14;102337.03;;;14.49;100.00
12468;BME280;57850;52.922;6.256;2023-09-30T06:10:41;102359.50;;;14.27;100.00
12468;BME280;57850;52.922;6.256;2023-09-30T06:13:09;102331.88;;;14.44;100.00
12468;BME280;57850;52.922;6.256;2023-09-30T06:15:39;102341.66;;;14.39;100.00
12468;BME280;57850;52.922;6.256;2023-09-30T06:18:07;102352.97;;;14.41;100.00
12468;BME280;57850;52.922;6.256;2023-09-30T06:20:35;102351.81;;;14.52;100.00
12468;BME280;57850;52.922;6.256;2023-09-30T06:23:01;102366.81;;;14.48;100.00
12468;BME280;57850;52.922;6.256;2023-09-30T06:25:28;102371.88;;;14.54;100.00
12468;BME280;57850;52.922;6.256;2023-09-30T06:27:56;102379.56;;;14.62;100.00
12468;BME280;57850;52.922;6.256;2023-09-30T06:30:23;102382.22;;;14.60;100.00
12468;BME280;57850;52.922;6.256;2023-09-30T06:32:56;102395.50;;;14.56;100.00
12468;BME280;57850;52.922;6.256;2023-09-30T06:35:22;102401.00;;;14.77;100.00
12468;BME280;57850;52.922;6.256;2023-09-30T06:37:50;102426.59;;;14.71;100.00
12468;BME280;57850;52.922;6.256;2023-09-30T06:40:16;102424.13;;;14.95;100.00
12468;BME280;57850;52.922;6.256;2023-09-30T06:42:44;102431.16;;;14.95;100.00
12468;BME280;57850;52.922;6.256;2023-09-30T06:45:11;102433.50;;;15.04;100.00
12468;BME280;57850;52.922;6.256;2023-09-30T06:47:39;102427.38;;;15.03;100.00
12468;BME280;57850;52.922;6.256;2023-09-30T06:50:10;102410.47;;;14.83;100.00
12468;BME280;57850;52.922;6.256;2023-09-30T06:52:38;102395.66;;;14.80;100.00
12468;BME280;57850;52.922;6.256;2023-09-30T06:55:07;102381.19;;;14.96;100.00
12468;BME280;57850;52.922;6.256;2023-09-30T06:57:34;102394.25;;;14.98;100.00
12468;BME280;57850;52.922;6.256;2023-09-30T07:00:01;102388.63;;;15.10;100.00
12468;BME280;57850;52.922;6.256;2023-09-30T07:02:29;102389.50;;;15.38;100.00
12468;BME280;57850;52.922;6.256;2023-09-30T07:04:56;102403.41;;;15.43;100.00
12468;BME280;57850;52.922;6.256;2023-09-30T07:07:24;102400.44;;;15.54;100.00
12468;BME280;57850;52.922;6.256;2023-09-30T07:09:50;102398.28;;;15.67;100.00
12468;BME280;57850;52.922;6.256;2023-09-30T07:12:17;102406.41;;;15.87;100.00
12468;BME280;57850;52.922;6.256;2023-09-30T07:14:44;102424.50;;;15.96;100.00
12468;BME280;57850;52.922;6.256;2023-09-30T07:17:11;102443.84;;;15.95;100.00
12468;BME280;57850;52.922;6.256;2023-09-30T07:19:37;102431.41;;;16.00;100.00
12468;BME280;57850;52.922;6.256;2023-09-30T07:22:04;102429.09;;;15.91;100.00
12468;BME280;57850;52.922;6.256;2023-09-30T07:24:32;102386.34;;;15.83;100.00
12468;BME280;57850;52.922;6.256;2023-09-30T07:26:59;102356.59;;;15.81;100.00
12468;BME280;57850;52.922;6.256;2023-09-30T07:29:25;102322.53;;;16.01;100.00
12468;BME280;57850;52.922;6.256;2023-09-30T07:31:52;102334.31;;;16.16;100.00
12468;BME280;57850;52.922;6.256;2023-09-30T07:34:18;102357.88;;;16.43;100.00
12468;BME280;57850;52.922;6.256;2023-09-30T07:36:46;102341.88;;;16.48;100.00
12468;BME280;57850;52.922;6.256;2023-09-30T07:39:12;102356.34;;;16.63;100.00
12468;BME280;57850;52.922;6.256;2023-09-30T07:41:40;102366.41;;;16.75;100.00
12468;BME280;57850;52.922;6.256;2023-09-30T07:44:07;102386.88;;;16.91;100.00
12468;BME280;57850;52.922;6.256;2023-09-30T07:46:34;102376.03;;;16.99;100.00
12468;BME280;57850;52.922;6.256;2023-09-30T07:49:01;102407.59;;;17.24;100.00
12468;BME280;57850;52.922;6.256;2023-09-30T07:51:28;102446.41;;;17.20;100.00
12468;BME280;57850;52.922;6.256;2023-09-30T07:53:55;102454.56;;;17.14;100.00
12468;BME280;57850;52.922;6.256;2023-09-30T07:56:22;102453.91;;;17.54;100.00
12468;BME280;57850;52.922;6.256;2023-09-30T07:58:50;102467.66;;;17.63;100.00
12468;BME280;57850;52.922;6.256;2023-09-30T08:01:17;102479.00;;;17.87;100.00
12468;BME280;57850;52.922;6.256;2023-09-30T08:03:43;102504.97;;;17.76;100.00
12468;BME280;57850;52.922;6.256;2023-09-30T08:06:10;102493.56;;;17.97;100.00
12468;BME280;57850;52.922;6.256;2023-09-30T08:08:37;102501.59;;;18.36;100.00
12468;BME280;57850;52.922;6.256;2023-09-30T08:11:03;102547.16;;;18.43;100.00
12468;BME280;57850;52.922;6.256;2023-09-30T08:13:31;102543.41;;;18.27;100.00
12468;BME280;57850;52.922;6.256;2023-09-30T08:15:59;102532.09;;;18.45;100.00
12468;BME280;57850;52.922;6.256;2023-09-30T08:18:26;102544.38;;;18.46;100.00
12468;BME280;57850;52.922;6.256;2023-09-30T08:20:52;102539.06;;;18.67;100.00
12468;BME280;57850;52.922;6.256;2023-09-30T08:23:19;102566.38;;;19.08;100.00
12468;BME280;57850;52.922;6.256;2023-09-30T08:25:46;102621.53;;;19.38;100.00
12468;BME280;57850;52.922;6.256;2023-09-30T08:28:13;102610.44;;;20.06;100.00
12468;BME280;57850;52.922;6.256;2023-09-30T08:30:39;102672.47;;;20.02;100.00
12468;BME280;57850;52.922;6.256;2023-09-30T08:33:07;102713.47;;;19.74;100.00
12468;BME280;57850;52.922;6.256;2023-09-30T08:35:35;102683.81;;;20.43;100.00
12468;BME280;57850;52.922;6.256;2023-09-30T08:38:03;102745.31;;;20.51;100.00
12468;BME280;57850;52.922;6.256;2023-09-30T08:40:31;102736.94;;;21.49;100.00
12468;BME280;57850;52.922;6.256;2023-09-30T08:42:57;102775.56;;;22.21;100.00
12468;BME280;57850;52.922;6.256;2023-09-30T08:45:27;102805.38;;;21.61;100.00
12468;BME280;57850;52.922;6.256;2023-09-30T08:47:54;102773.50;;;22.90;100.00
12468;BME280;57850;52.922;6.256;2023-09-30T08:50:23;102842.63;;;23.23;100.00
12468;BME280;57850;52.922;6.256;2023-09-30T08:52:51;102864.47;;;22.99;100.00
12468;BME280;57850;52.922;6.256;2023-09-30T08:55:18;102852.22;;;22.63;100.00
12468;BME280;57850;52.922;6.256;2023-09-30T08:57:46;102855.28;;;22.88;100.00
12468;BME280;57850;52.922;6.256;2023-09-30T09:00:13;102854.84;;;22.48;100.00
12468;BME280;57850;52.922;6.256;2023-09-30T09:02:40;102843.72;;;24.38;100.00
12468;BME280;57850;52.922;6.256;2023-09-30T09:05:07;102858.50;;;24.30;100.00
12468;BME280;57850;52.922;6.256;2023-09-30T09:07:37;102844.19;;;25.14;100.00
12468;BME280;57850;52.922;6.256;2023-09-30T09:10:06;102857.16;;;24.93;100.00
12468;BME280;57850;52.922;6.256;2023-09-30T09:12:36;102883.66;;;24.26;100.00
12468;BME280;57850;52.922;6.256;2023-09-30T09:15:05;102839.91;;;25.65;100.00
12468;BME280;57850;52.922;6.256;2023-09-30T09:17:42;102831.25;;;25.74;100.00
12468;BME280;57850;52.922;6.256;2023-09-30T09:20:10;102872.34;;;24.07;100.00
12468;BME280;57850;52.922;6.256;2023-09-30T09:22:41;102856.41;;;25.18;100.00
12468;BME280;57850;52.922;6.256;2023-09-30T09:25:08;102881.06;;;24.95;100.00
12468;BME280;57850;52.922;6.256;2023-09-30T09:27:35;102880.63;;;25.56;100.00
12468;BME280;57850;52.922;6.256;2023-09-30T09:30:18;102898.22;;;25.05;100.00
12468;BME280;57850;52.922;6.256;2023-09-30T09:32:58;102942.88;;;22.93;100.00
12468;BME280;57850;52.922;6.256;2023-09-30T09:35:25;102936.84;;;22.74;100.00
12468;BME280;57850;52.922;6.256;2023-09-30T09:37:56;102913.03;;;24.54;100.00
12468;BME280;57850;52.922;6.256;2023-09-30T09:40:24;102909.56;;;24.38;100.00
12468;BME280;57850;52.922;6.256;2023-09-30T09:42:51;102888.81;;;25.26;100.00
12468;BME280;57850;52.922;6.256;2023-09-30T09:45:21;102923.47;;;24.15;100.00
12468;BME280;57850;52.922;6.256;2023-09-30T09:47:49;102890.81;;;25.37;100.00
12468;BME280;57850;52.922;6.256;2023-09-30T09:50:17;102844.66;;;26.50;100.00
12468;BME280;57850;52.922;6.256;2023-09-30T09:52:44;102875.13;;;25.72;100.00
12468;BME280;57850;52.922;6.256;2023-09-30T09:55:15;102885.78;;;25.59;100.00
12468;BME280;57850;52.922;6.256;2023-09-30T09:57:43;102870.31;;;25.89;100.00
12468;BME280;57850;52.922;6.256;2023-09-30T10:00:11;102845.19;;;27.28;100.00
12468;BME280;57850;52.922;6.256;2023-09-30T10:02:39;102845.41;;;27.25;100.00
12468;BME280;57850;52.922;6.256;2023-09-30T10:05:07;102865.53;;;26.32;100.00
12468;BME280;57850;52.922;6.256;2023-09-30T10:07:39;102870.34;;;26.52;100.00
12468;BME280;57850;52.922;6.256;2023-09-30T10:10:13;102919.22;;;25.11;100.00
12468;BME280;57850;52.922;6.256;2023-09-30T10:12:43;102871.72;;;26.83;100.00
12468;BME280;57850;52.922;6.256;2023-09-30T10:15:35;102890.13;;;25.99;100.00
12468;BME280;57850;52.922;6.256;2023-09-30T10:18:03;102877.72;;;26.61;100.00
12468;BME280;57850;52.922;6.256;2023-09-30T10:20:33;102966.16;;;24.15;100.00
12468;BME280;57850;52.922;6.256;2023-09-30T10:23:25;102906.81;;;25.51;100.00
12468;BME280;57850;52.922;6.256;2023-09-30T10:25:53;102897.25;;;25.74;100.00
12468;BME280;57850;52.922;6.256;2023-09-30T10:28:34;102902.31;;;25.91;100.00
12468;BME280;57850;52.922;6.256;2023-09-30T10:31:08;102923.16;;;25.06;100.00
12468;BME280;57850;52.922;6.256;2023-09-30T10:33:35;102905.31;;;25.86;100.00
12468;BME280;57850;52.922;6.256;2023-09-30T10:36:02;102884.44;;;26.80;100.00
12468;BME280;57850;52.922;6.256;2023-09-30T10:38:39;102949.09;;;24.89;100.00
12468;BME280;57850;52.922;6.256;2023-09-30T10:41:06;102836.50;;;27.48;100.00
12468;BME280;57850;52.922;6.256;2023-09-30T10:43:36;102894.03;;;26.21;100.00
12468;BME280;57850;52.922;6.256;2023-09-30T10:46:03;102914.53;;;25.41;100.00
12468;BME280;57850;52.922;6.256;2023-09-30T10:48:36;102942.91;;;24.31;100.00
12468;BME280;57850;52.922;6.256;2023-09-30T10:51:13;102956.47;;;23.82;100.00
12468;BME280;57850;52.922;6.256;2023-09-30T10:53:45;102923.50;;;24.57;100.00
12468;BME280;57850;52.922;6.256;2023-09-30T10:56:13;102932.63;;;24.25;100.00
12468;BME280;57850;52.922;6.256;2023-09-30T10:58:45;102934.47;;;24.09;100.00
12468;BME280;57850;52.922;6.256;2023-09-30T11:01:13;102929.50;;;24.03;100.00
12468;BME280;57850;52.922;6.256;2023-09-30T11:03:41;102932.16;;;24.32;100.00
12468;BME280;57850;52.922;6.256;2023-09-30T11:06:11;102886.41;;;24.81;100.00
12468;BME280;57850;52.922;6.256;2023-09-30T11:08:45;102852.72;;;25.73;100.00
12468;BME280;57850;52.922;6.256;2023-09-30T11:11:11;102907.97;;;24.49;100.00
12468;BME280;57850;52.922;6.256;2023-09-30T11:13:39;102814.38;;;27.09;100.00
12468;BME280;57850;52.922;6.256;2023-09-30T11:16:07;102815.13;;;26.26;100.00
12468;BME280;57850;52.922;6.256;2023-09-30T11:18:34;102883.34;;;24.73;100.00
12468;BME280;57850;52.922;6.256;2023-09-30T11:21:05;102881.47;;;24.61;100.00
12468;BME280;57850;52.922;6.256;2023-09-30T11:23:32;102858.56;;;24.71;100.00
12468;BME280;57850;52.922;6.256;2023-09-30T11:25:59;102867.94;;;24.49;100.00
12468;BME280;57850;52.922;6.256;2023-09-30T11:28:35;102872.88;;;24.70;100.00
12468;BME280;57850;52.922;6.256;2023-09-30T11:31:02;102914.53;;;23.70;100.00
12468;BME280;57850;52.922;6.256;2023-09-30T11:33:30;102886.78;;;24.46;100.00
12468;BME280;57850;52.922;6.256;2023-09-30T11:36:01;102848.69;;;25.14;100.00
12468;BME280;57850;52.922;6.256;2023-09-30T11:38:28;102756.22;;;27.34;100.00
12468;BME280;57850;52.922;6.256;2023-09-30T11:41:02;102752.53;;;27.58;100.00
12468;BME280;57850;52.922;6.256;2023-09-30T11:43:29;102719.00;;;27.64;100.00
12468;BME280;57850;52.922;6.256;2023-09-30T11:46:06;102753.63;;;26.97;100.00
12468;BME280;57850;52.922;6.256;2023-09-30T11:48:35;102814.78;;;26.05;100.00
12468;BME280;57850;52.922;6.256;2023-09-30T11:51:02;102768.25;;;26.93;100.00
12468;BME280;57850;52.922;6.256;2023-09-30T11:53:29;102725.00;;;27.90;100.00
12468;BME280;57850;52.922;6.256;2023-09-30T11:55:57;102750.63;;;27.72;100.00
12468;BME280;57850;52.922;6.256;2023-09-30T11:58:25;102738.03;;;27.50;100.00
12468;BME280;57850;52.922;6.256;2023-09-30T12:00:53;102746.94;;;26.79;100.00
12468;BME280;57850;52.922;6.256;2023-09-30T12:03:20;102719.94;;;27.41;100.00
12468;BME280;57850;52.922;6.256;2023-09-30T12:05:49;102702.09;;;28.08;100.00
12468;BME280;57850;52.922;6.256;2023-09-30T12:08:16;102681.31;;;28.64;100.00
12468;BME280;57850;52.922;6.256;2023-09-30T12:10:42;102667.44;;;29.11;100.00
12468;BME280;57850;52.922;6.256;2023-09-30T12:13:09;102667.88;;;28.75;100.00
12468;BME280;57850;52.922;6.256;2023-09-30T12:15:37;102682.31;;;28.09;100.00
12468;BME280;57850;52.922;6.256;2023-09-30T12:18:04;102727.44;;;27.59;100.00
12468;BME280;57850;52.922;6.256;2023-09-30T12:20:31;102764.72;;;26.93;100.00
12468;BME280;57850;52.922;6.256;2023-09-30T12:22:59;102719.41;;;27.25;100.00
12468;BME280;57850;52.922;6.256;2023-09-30T12:25:26;102798.06;;;25.64;100.00
12468;BME280;57850;52.922;6.256;2023-09-30T12:27:53;102725.00;;;27.22;100.00
12468;BME280;57850;52.922;6.256;2023-09-30T12:30:21;102766.31;;;26.95;100.00
12468;BME280;57850;52.922;6.256;2023-09-30T12:32:47;102699.78;;;27.24;100.00
12468;BME280;57850;52.922;6.256;2023-09-30T12:35:14;102729.47;;;26.63;100.00
12468;BME280;57850;52.922;6.256;2023-09-30T12:37:40;102714.28;;;26.74;100.00
12468;BME280;57850;52.922;6.256;2023-09-30T12:40:10;102701.25;;;27.28;100.00
12468;BME280;57850;52.922;6.256;2023-09-30T12:42:39;102782.53;;;25.56;100.00
12468;BME280;57850;52.922;6.256;2023-09-30T12:45:06;102735.91;;;25.98;100.00